createdAt,value
2022-12-14T00:01:21.331Z,-0.60
2022-12-14T00:03:48.539Z,-0.80
2022-12-14T00:06:18.131Z,-0.30
2022-12-14T00:08:46.075Z,0.10
2022-12-14T00:11:14.327Z,-0.30
2022-12-14T00:13:41.782Z,-0.20
2022-12-14T00:16:14.001Z,0.20
2022-12-14T00:18:41.210Z,0.30
2022-12-14T00:21:13.061Z,0.30
2022-12-14T00:23:41.551Z,0.60
2022-12-14T00:26:08.274Z,1.10
2022-12-14T00:28:34.987Z,1.20
2022-12-14T00:31:01.690Z,1.20
2022-12-14T00:33:28.380Z,1.40
2022-12-14T00:35:55.034Z,1.30
2022-12-14T00:38:21.735Z,1.30
2022-12-14T00:40:48.395Z,1.30
2022-12-14T00:43:15.075Z,1.40
2022-12-14T00:45:44.689Z,1.40
2022-12-14T00:48:12.271Z,1.40
2022-12-14T00:50:39.048Z,1.30
2022-12-14T00:53:06.024Z,1.20
2022-12-14T00:55:40.297Z,1.10
2022-12-14T00:58:12.188Z,1.10
2022-12-14T01:00:39.209Z,1.10
2022-12-14T01:03:06.275Z,1.10
2022-12-14T01:05:36.219Z,1.20
2022-12-14T01:08:03.075Z,0.90
2022-12-14T01:10:29.824Z,1.20
2022-12-14T01:12:56.510Z,0.80
2022-12-14T01:15:23.162Z,1.00
2022-12-14T01:17:51.648Z,1.00
2022-12-14T01:20:18.641Z,1.00
2022-12-14T01:22:45.777Z,0.10
2022-12-14T01:25:12.529Z,-0.20
2022-12-14T01:27:39.220Z,-0.10
2022-12-14T01:30:06.311Z,0.10
2022-12-14T01:32:34.642Z,0.90
2022-12-14T01:35:01.403Z,1.20
2022-12-14T01:37:28.834Z,1.50
2022-12-14T01:39:55.708Z,1.50
2022-12-14T01:42:22.553Z,1.50
2022-12-14T01:44:57.104Z,1.60
2022-12-14T01:47:30.275Z,1.40
2022-12-14T01:50:11.499Z,1.50
2022-12-14T01:52:44.233Z,1.70
2022-12-14T01:55:12.358Z,1.30
2022-12-14T01:57:47.160Z,1.40
2022-12-14T02:00:14.890Z,1.40
2022-12-14T02:02:54.425Z,1.30
2022-12-14T02:05:22.567Z,1.60
2022-12-14T02:07:50.812Z,1.40
2022-12-14T02:10:17.766Z,1.80
2022-12-14T02:12:51.810Z,1.30
2022-12-14T02:15:18.899Z,1.30
2022-12-14T02:17:47.199Z,1.50
2022-12-14T02:20:14.442Z,1.70
2022-12-14T02:22:57.474Z,1.40
2022-12-14T02:25:27.276Z,1.40
2022-12-14T02:28:36.404Z,1.90
2022-12-14T02:31:26.302Z,2.10
2022-12-14T02:33:58.781Z,2.10
2022-12-14T02:37:00.248Z,2.20
2022-12-14T02:39:40.418Z,2.30
2022-12-14T02:42:15.163Z,2.40
2022-12-14T02:44:44.863Z,2.20
2022-12-14T02:47:17.923Z,2.10
2022-12-14T02:50:08.467Z,2.10
2022-12-14T02:53:22.006Z,2.20
2022-12-14T02:56:09.897Z,2.40
2022-12-14T02:59:10.190Z,2.40
2022-12-14T03:01:43.514Z,2.40
2022-12-14T03:04:33.426Z,2.50
2022-12-14T03:07:04.511Z,2.50
2022-12-14T03:12:59.004Z,1.10
2022-12-14T03:16:01.218Z,0.90
2022-12-14T03:19:03.444Z,1.30
2022-12-14T03:21:55.600Z,1.10
2022-12-14T03:24:53.838Z,1.60
2022-12-14T03:27:24.660Z,1.90
2022-12-14T03:30:00.474Z,1.80
2022-12-14T03:32:31.786Z,1.20
2022-12-14T03:35:05.214Z,1.50
2022-12-14T03:37:40.313Z,1.70
2022-12-14T03:40:09.336Z,1.70
2022-12-14T03:42:49.418Z,2.00
2022-12-14T03:45:21.702Z,1.50
2022-12-14T03:47:53.813Z,1.50
2022-12-14T03:50:30.977Z,1.60
2022-12-14T03:52:59.911Z,1.50
2022-12-14T03:55:26.498Z,1.70
2022-12-14T03:58:13.379Z,2.10
2022-12-14T04:00:49.210Z,2.10
2022-12-14T04:03:36.526Z,2.20
2022-12-14T04:06:07.221Z,2.50
2022-12-14T04:08:47.499Z,1.90
2022-12-14T04:11:34.825Z,1.90
2022-12-14T04:14:27.047Z,2.40
2022-12-14T04:17:15.043Z,2.20
2022-12-14T04:19:49.403Z,2.30
2022-12-14T04:22:19.139Z,2.30
2022-12-14T04:25:14.087Z,2.50
2022-12-14T04:27:48.172Z,2.70
2022-12-14T04:30:15.118Z,2.60
2022-12-14T04:32:45.801Z,2.50
2022-12-14T04:35:18.594Z,1.80
2022-12-14T04:37:49.129Z,1.80
2022-12-14T04:40:21.944Z,1.70
2022-12-14T04:42:53.000Z,1.50
2022-12-14T04:45:27.422Z,1.60
2022-12-14T04:48:08.530Z,2.00
2022-12-14T04:50:39.221Z,2.10
2022-12-14T04:53:27.013Z,2.00
2022-12-14T04:56:43.730Z,2.20
2022-12-14T04:59:15.094Z,2.40
2022-12-14T05:02:11.346Z,2.10
2022-12-14T05:05:04.790Z,1.80
2022-12-14T05:08:11.821Z,2.00
2022-12-14T05:11:05.239Z,2.20
2022-12-14T05:13:49.043Z,2.10
2022-12-14T05:16:28.352Z,2.30
2022-12-14T05:19:02.187Z,2.50
2022-12-14T05:22:03.617Z,2.30
2022-12-14T05:24:47.776Z,1.90
2022-12-14T05:27:14.427Z,2.10
2022-12-14T05:29:41.095Z,2.40
2022-12-14T05:32:09.706Z,2.60
2022-12-14T05:34:36.365Z,2.10
2022-12-14T05:37:03.056Z,2.10
2022-12-14T05:39:29.730Z,2.00
2022-12-14T05:41:56.529Z,1.80
2022-12-14T05:44:23.206Z,2.00
2022-12-14T05:46:49.916Z,1.80
2022-12-14T05:49:16.609Z,1.90
2022-12-14T05:51:43.272Z,1.90
2022-12-14T05:54:10.142Z,2.00
2022-12-14T05:56:36.786Z,1.80
2022-12-14T05:59:03.526Z,2.00
2022-12-14T06:01:30.297Z,2.10
2022-12-14T06:03:57.133Z,2.10
2022-12-14T06:06:23.838Z,2.00
2022-12-14T06:08:52.852Z,1.80
2022-12-14T06:11:21.556Z,1.80
2022-12-14T06:13:48.985Z,1.80
2022-12-14T06:16:21.678Z,1.80
2022-12-14T06:18:50.833Z,1.80
2022-12-14T06:21:19.302Z,1.80
2022-12-14T06:23:46.210Z,1.80
2022-12-14T06:26:13.878Z,2.10
2022-12-14T06:28:40.596Z,2.10
2022-12-14T06:31:07.698Z,2.20
2022-12-14T06:33:37.729Z,2.20
2022-12-14T06:36:04.574Z,2.20
2022-12-14T06:38:31.231Z,2.20
2022-12-14T06:40:57.877Z,2.20
2022-12-14T06:43:26.369Z,1.80
2022-12-14T06:45:53.620Z,2.10
2022-12-14T06:48:20.318Z,2.10
2022-12-14T06:50:46.979Z,2.00
2022-12-14T06:53:14.343Z,2.00
2022-12-14T06:55:41.035Z,2.10
2022-12-14T06:58:11.784Z,2.00
2022-12-14T07:00:38.444Z,2.20
2022-12-14T07:03:05.268Z,2.60
2022-12-14T07:05:32.002Z,2.20
2022-12-14T07:07:58.724Z,2.00
2022-12-14T07:10:25.380Z,2.10
2022-12-14T07:12:52.047Z,2.00
2022-12-14T07:15:18.704Z,2.30
2022-12-14T07:17:45.460Z,2.50
2022-12-14T07:20:12.249Z,2.10
2022-12-14T07:22:38.978Z,2.00
2022-12-14T07:25:06.174Z,2.10
2022-12-14T07:27:32.845Z,1.70
2022-12-14T07:29:59.536Z,1.90
2022-12-14T07:32:26.273Z,1.90
2022-12-14T07:34:52.930Z,2.10
2022-12-14T07:37:20.439Z,2.30
2022-12-14T07:39:47.274Z,2.10
2022-12-14T07:42:13.993Z,2.00
2022-12-14T07:44:40.663Z,2.10
2022-12-14T07:47:07.372Z,2.40
2022-12-14T07:49:34.029Z,2.50
2022-12-14T07:52:00.733Z,2.50
2022-12-14T07:54:27.530Z,2.20
2022-12-14T07:56:54.325Z,2.30
2022-12-14T07:59:21.264Z,2.20
2022-12-14T08:01:48.260Z,2.50
2022-12-14T08:04:18.372Z,2.40
2022-12-14T08:06:47.425Z,2.60
2022-12-14T08:09:15.563Z,3.00
2022-12-14T08:11:42.673Z,2.90
2022-12-14T08:14:17.248Z,2.80
2022-12-14T08:16:44.951Z,2.90
2022-12-14T08:19:12.463Z,2.70
2022-12-14T08:21:39.984Z,2.50
2022-12-14T08:24:06.818Z,2.70
2022-12-14T08:26:35.847Z,2.70
2022-12-14T08:29:03.934Z,3.10
2022-12-14T08:31:31.342Z,2.90
2022-12-14T08:33:59.554Z,2.80
2022-12-14T08:36:30.072Z,3.20
2022-12-14T08:39:01.466Z,3.30
2022-12-14T08:41:28.850Z,3.30
2022-12-14T08:43:57.878Z,3.10
2022-12-14T08:46:25.846Z,3.50
2022-12-14T08:48:55.102Z,3.60
2022-12-14T08:51:22.352Z,3.50
2022-12-14T08:53:49.667Z,2.90
2022-12-14T08:56:19.877Z,3.00
2022-12-14T08:58:47.003Z,2.80
2022-12-14T09:01:34.966Z,3.30
2022-12-14T09:04:06.744Z,3.40
2022-12-14T09:06:36.853Z,3.20
2022-12-14T09:09:06.400Z,3.30
2022-12-14T09:11:35.951Z,3.20
2022-12-14T09:14:02.664Z,3.40
2022-12-14T09:16:29.874Z,3.60
2022-12-14T09:18:56.607Z,3.20
2022-12-14T09:21:23.970Z,3.20
2022-12-14T09:23:57.324Z,3.60
2022-12-14T09:26:25.846Z,3.10
2022-12-14T09:28:54.527Z,2.70
2022-12-14T09:31:23.165Z,2.40
2022-12-14T09:33:50.328Z,2.50
2022-12-14T09:36:22.243Z,2.00
2022-12-14T09:38:52.257Z,2.40
2022-12-14T09:41:34.754Z,2.00
2022-12-14T09:44:38.222Z,2.40
2022-12-14T09:47:16.668Z,2.70
2022-12-14T09:49:48.738Z,2.30
2022-12-14T09:52:19.433Z,2.20
2022-12-14T09:54:49.810Z,2.40
2022-12-14T09:57:27.990Z,2.20
2022-12-14T09:59:54.945Z,1.70
2022-12-14T10:02:37.966Z,1.80
2022-12-14T10:05:29.025Z,1.90
2022-12-14T10:08:19.849Z,2.20
2022-12-14T10:10:56.094Z,1.80
2022-12-14T10:13:37.728Z,2.40
2022-12-14T10:16:25.917Z,2.60
2022-12-14T10:19:20.030Z,2.70
2022-12-14T10:21:51.283Z,3.20
2022-12-14T10:24:25.828Z,2.70
2022-12-14T10:26:55.550Z,2.70
2022-12-14T10:29:26.888Z,2.90
2022-12-14T10:32:07.881Z,2.80
2022-12-14T10:34:35.463Z,2.50
2022-12-14T10:37:18.746Z,3.00
2022-12-14T10:39:53.781Z,3.40
2022-12-14T10:42:29.612Z,3.30
2022-12-14T10:47:51.350Z,3.60
2022-12-14T10:50:49.761Z,3.10
2022-12-14T10:53:27.894Z,2.90
2022-12-14T10:56:06.905Z,2.70
2022-12-14T10:58:36.094Z,3.00
2022-12-14T11:01:02.821Z,3.70
2022-12-14T11:03:34.845Z,3.70
2022-12-14T11:06:22.133Z,3.40
2022-12-14T11:08:52.006Z,3.50
2022-12-14T11:11:28.198Z,3.50
2022-12-14T11:14:09.744Z,4.00
2022-12-14T11:16:39.325Z,3.60
2022-12-14T11:19:18.577Z,3.70
2022-12-14T11:21:46.086Z,3.80
2022-12-14T11:24:25.695Z,3.70
2022-12-14T11:26:54.277Z,3.50
2022-12-14T11:29:38.506Z,3.60
2022-12-14T11:32:05.860Z,3.50
2022-12-14T11:34:41.692Z,3.60
2022-12-14T11:37:20.945Z,3.30
2022-12-14T11:39:53.430Z,3.50
2022-12-14T11:42:21.067Z,3.70
2022-12-14T11:44:50.703Z,3.30
2022-12-14T11:47:21.622Z,2.80
2022-12-14T11:49:51.863Z,2.70
2022-12-14T11:52:25.623Z,2.50
2022-12-14T11:54:52.204Z,2.80
2022-12-14T11:57:25.765Z,3.00
2022-12-14T11:59:55.713Z,2.50
2022-12-14T12:02:29.110Z,2.50
2022-12-14T12:04:59.892Z,3.00
2022-12-14T12:07:32.443Z,3.40
2022-12-14T12:10:23.869Z,2.70
2022-12-14T12:12:59.676Z,2.60
2022-12-14T12:15:41.431Z,3.10
2022-12-14T12:18:26.467Z,3.10
2022-12-14T12:21:08.420Z,3.10
2022-12-14T12:23:59.205Z,3.00
2022-12-14T12:26:31.727Z,2.90
2022-12-14T12:29:06.358Z,2.90
2022-12-14T12:31:39.569Z,3.00
2022-12-14T12:34:20.910Z,3.40
2022-12-14T12:37:24.241Z,3.10
2022-12-14T12:39:35.405Z,3.30
2022-12-14T12:42:13.673Z,2.90
2022-12-14T12:45:21.801Z,3.40
2022-12-14T12:47:56.183Z,3.80
2022-12-14T12:50:27.090Z,3.50
2022-12-14T12:53:03.168Z,3.70
2022-12-14T12:56:06.222Z,3.60
2022-12-14T12:58:34.994Z,4.00
2022-12-14T13:01:07.571Z,4.00
2022-12-14T13:03:39.645Z,4.10
2022-12-14T13:06:15.517Z,3.80
2022-12-14T13:08:43.893Z,3.90
2022-12-14T13:11:27.802Z,3.40
2022-12-14T13:14:21.185Z,2.70
2022-12-14T13:16:49.258Z,2.80
2022-12-14T13:22:16.301Z,3.30
2022-12-14T13:24:47.402Z,2.70
2022-12-14T13:27:27.963Z,2.60
2022-12-14T13:30:15.053Z,2.90
2022-12-14T13:32:47.736Z,3.10
2022-12-14T13:35:36.499Z,3.50
2022-12-14T13:38:12.644Z,3.80
2022-12-14T13:41:07.041Z,3.80
2022-12-14T13:43:56.184Z,4.00
2022-12-14T13:46:25.518Z,4.10
2022-12-14T13:48:54.252Z,4.30
2022-12-14T13:51:28.226Z,4.30
2022-12-14T13:53:58.981Z,4.20
2022-12-14T13:56:33.569Z,4.00
2022-12-14T13:59:03.809Z,4.40
2022-12-14T14:01:45.616Z,4.30
2022-12-14T14:04:15.086Z,4.10
2022-12-14T14:06:45.604Z,4.40
2022-12-14T14:09:30.506Z,4.00
2022-12-14T14:12:16.291Z,4.00
2022-12-14T14:14:56.387Z,4.20
2022-12-14T14:17:38.186Z,4.40
2022-12-14T14:20:41.033Z,4.50
2022-12-14T14:23:13.546Z,4.20
2022-12-14T14:25:44.468Z,4.40
2022-12-14T14:28:15.251Z,4.50
2022-12-14T14:30:53.781Z,4.20
2022-12-14T14:33:45.399Z,4.50
2022-12-14T14:36:33.422Z,4.70
2022-12-14T14:39:01.728Z,4.50
2022-12-14T14:41:34.827Z,4.50
2022-12-14T14:44:08.124Z,4.50
2022-12-14T14:46:38.227Z,4.10
2022-12-14T14:49:06.749Z,3.90
2022-12-14T14:51:36.004Z,3.70
2022-12-14T14:54:44.750Z,3.70
2022-12-14T14:57:35.101Z,3.70
2022-12-14T15:00:04.461Z,3.40
2022-12-14T15:02:40.709Z,3.30
2022-12-14T15:05:41.521Z,3.30
2022-12-14T15:08:04.256Z,3.30
2022-12-14T15:10:42.030Z,3.30
2022-12-14T15:13:18.529Z,3.70
2022-12-14T15:15:47.422Z,3.60
2022-12-14T15:18:34.328Z,3.80
2022-12-14T15:21:07.781Z,3.60
2022-12-14T15:23:43.612Z,3.10
2022-12-14T15:26:20.057Z,3.30
2022-12-14T15:28:48.921Z,3.40
2022-12-14T15:31:15.773Z,3.50
2022-12-14T15:33:43.231Z,3.10
2022-12-14T15:36:15.666Z,3.10
2022-12-14T15:38:54.911Z,3.50
2022-12-14T15:41:23.868Z,3.20
2022-12-14T15:43:59.381Z,3.30
2022-12-14T15:46:33.280Z,3.40
2022-12-14T15:49:05.906Z,3.50
2022-12-14T15:51:38.504Z,3.50
2022-12-14T15:54:06.898Z,3.40
2022-12-14T15:56:39.968Z,3.90
2022-12-14T15:59:16.675Z,3.70
2022-12-14T16:01:51.711Z,3.80
2022-12-14T16:04:23.054Z,3.40
2022-12-14T16:06:53.165Z,3.60
2022-12-14T16:09:34.445Z,3.80
2022-12-14T16:12:08.712Z,3.90
2022-12-14T16:14:48.104Z,3.80
2022-12-14T16:17:24.972Z,3.80
2022-12-14T16:19:59.938Z,3.60
2022-12-14T16:22:31.865Z,3.60
2022-12-14T16:25:07.588Z,3.70
2022-12-14T16:27:38.069Z,3.70
2022-12-14T16:30:29.281Z,3.30
2022-12-14T16:33:08.172Z,3.30
2022-12-14T16:35:36.771Z,3.60
2022-12-14T16:38:17.529Z,3.70
2022-12-14T16:41:05.488Z,3.70
2022-12-14T16:43:41.977Z,3.70
2022-12-14T16:46:14.846Z,3.60
2022-12-14T23:25:29.863Z,2.70
2022-12-14T23:28:14.882Z,3.30
2022-12-14T23:31:00.160Z,3.00
2022-12-14T23:33:45.889Z,2.80
2022-12-14T23:36:31.200Z,2.70
2022-12-14T23:39:16.251Z,3.10
2022-12-14T23:42:01.155Z,2.90
2022-12-14T23:44:46.230Z,2.80
2022-12-14T23:47:31.186Z,2.80
2022-12-14T23:50:16.353Z,3.40
2022-12-14T23:53:01.269Z,2.80
2022-12-14T23:55:46.547Z,3.10
2022-12-14T23:58:32.013Z,3.00
